Time;durP1;ratioP1;P1;durP2;ratioP2;P2;SDS_P1;SDS_P2;PMS_P1;PMS_P2;Temp;Humidity;BMP_temperature;BMP_pressure;BME280_temperature;BME280_humidity;BME280_pressure;Samples;Min_cycle;Max_cycle;Signal;HPM_P1;HPM_P2
2022/05/13 00:01:10;;;;;;;2.85;2.65;;;16.50;72.60;;;;;;5014548;28;20628;-73
2022/05/13 00:03:37;;;;;;;2.85;2.75;;;16.40;73.00;;;;;;5014715;28;20192;-74
2022/05/13 00:06:03;;;;;;;2.58;2.42;;;16.40;73.20;;;;;;5015916;28;20180;-73
2022/05/13 00:08:30;;;;;;;4.88;2.55;;;16.40;73.10;;;;;;5009795;28;20176;-72
2022/05/13 00:10:55;;;;;;;2.45;2.35;;;16.30;73.70;;;;;;5017497;28;20196;-73
2022/05/13 00:13:21;;;;;;;4.07;2.65;;;16.30;72.50;;;;;;5015450;28;20232;-72
2022/05/13 00:15:48;;;;;;;2.38;2.28;;;16.20;72.60;;;;;;5012624;28;20271;-73
2022/05/13 00:18:15;;;;;;;3.33;2.33;;;16.20;73.60;;;;;;5015282;28;20303;-73
2022/05/13 00:20:41;;;;;;;2.97;1.98;;;16.20;73.30;;;;;;5017545;28;20180;-73
2022/05/13 00:23:07;;;;;;;2.17;2.03;;;16.20;73.80;;;;;;5010811;28;20192;-73
2022/05/13 00:25:35;;;;;;;2.10;2.03;;;16.20;73.70;;;;;;5017205;28;20721;-74
2022/05/13 00:28:03;;;;;;;2.63;2.53;;;16.20;74.00;;;;;;5012460;28;20180;-73
2022/05/13 00:30:31;;;;;;;2.20;2.10;;;16.20;74.60;;;;;;5015868;28;20196;-73
2022/05/13 00:32:56;;;;;;;1.95;1.90;;;16.20;74.00;;;;;;5015374;28;20576;-74
2022/05/13 00:35:23;;;;;;;2.45;2.35;;;16.20;73.90;;;;;;5012257;28;20212;-73
2022/05/13 00:37:49;;;;;;;2.30;2.20;;;16.20;74.20;;;;;;5009838;28;20211;-73
2022/05/13 00:40:16;;;;;;;3.35;2.38;;;16.10;74.40;;;;;;5012533;28;20189;-73
2022/05/13 00:42:43;;;;;;;2.53;2.33;;;16.10;74.20;;;;;;5014040;28;20242;-72
2022/05/13 00:45:13;;;;;;;2.75;2.05;;;16.10;73.90;;;;;;5014197;28;20263;-72
2022/05/13 00:47:39;;;;;;;1.80;1.80;;;16.00;74.30;;;;;;5010682;28;20616;-72
2022/05/13 00:50:06;;;;;;;2.78;2.15;;;16.00;73.00;;;;;;5009740;28;20260;-73
2022/05/13 00:52:32;;;;;;;2.22;2.00;;;16.00;74.20;;;;;;5015033;28;20299;-72
2022/05/13 00:55:01;;;;;;;2.17;2.08;;;16.00;74.00;;;;;;5011300;28;20219;-73
2022/05/13 00:57:26;;;;;;;2.35;2.15;;;15.90;74.50;;;;;;5041787;28;20235;-73
2022/05/13 00:59:54;;;;;;;7.18;2.67;;;15.80;72.90;;;;;;5011343;28;20181;-73
2022/05/13 01:02:20;;;;;;;4.10;3.13;;;15.80;74.20;;;;;;5015726;28;20212;-73
2022/05/13 01:04:45;;;;;;;2.63;2.42;;;15.80;74.10;;;;;;5008581;28;20213;-73
2022/05/13 01:07:19;;;;;;;2.40;2.30;;;15.70;74.40;;;;;;5046595;28;20231;-73
2022/05/13 01:09:52;;;;;;;3.60;2.38;;;15.70;75.00;;;;;;5011767;28;20201;-73
2022/05/13 01:12:23;;;;;;;2.15;2.03;;;15.70;74.80;;;;;;5009666;28;20329;-73
2022/05/13 01:14:59;;;;;;;4.38;2.08;;;15.70;75.90;;;;;;5011632;28;20260;-74
2022/05/13 01:20:22;;;;;;;1.85;1.75;;;15.60;75.70;;;;;;5011878;28;20191;-74
2022/05/13 01:22:51;;;;;;;2.30;2.10;;;15.50;75.80;;;;;;5026713;28;20184;-74
2022/05/13 01:25:20;;;;;;;2.20;2.10;;;15.50;76.00;;;;;;5012646;28;20212;-74
2022/05/13 01:27:48;;;;;;;1.65;1.65;;;15.40;76.00;;;;;;5032564;28;20684;-74
2022/05/13 01:30:19;;;;;;;2.40;1.88;;;15.40;75.80;;;;;;5014365;28;20180;-73
2022/05/13 01:32:44;;;;;;;1.95;1.80;;;15.40;75.40;;;;;;5011232;28;20224;-73
2022/05/13 01:35:11;;;;;;;3.17;1.80;;;;;;;;;;5005048;28;20564;-74
2022/05/13 01:37:37;;;;;;;2.90;1.92;;;15.30;75.40;;;;;;5016742;28;20184;-73
2022/05/13 01:40:04;;;;;;;1.63;1.58;;;15.20;75.10;;;;;;5010829;28;20239;-74
2022/05/13 01:42:31;;;;;;;3.38;2.03;;;15.10;75.10;;;;;;5006781;28;20195;-73
2022/05/13 01:44:57;;;;;;;1.85;1.75;;;15.10;74.70;;;;;;5011559;28;20606;-73
2022/05/13 01:47:25;;;;;;;1.30;1.30;;;15.10;74.90;;;;;;5009036;28;20254;-74
2022/05/13 01:49:52;;;;;;;1.77;1.77;;;15.10;75.10;;;;;;5024707;28;20199;-73
2022/05/13 01:52:18;;;;;;;7.75;1.98;;;15.10;75.70;;;;;;5013000;28;20207;-74
2022/05/13 01:54:44;;;;;;;1.83;1.67;;;15.10;75.90;;;;;;5010162;28;20181;-74
2022/05/13 01:57:10;;;;;;;3.55;2.13;;;15.10;76.10;;;;;;5011348;28;20181;-74
2022/05/13 01:59:35;;;;;;;2.67;1.75;;;15.00;75.70;;;;;;5009476;28;20185;-73
2022/05/13 02:02:01;;;;;;;2.35;2.25;;;15.00;76.00;;;;;;5009990;28;20223;-74
2022/05/13 02:04:27;;;;;;;2.25;2.10;;;;;;;;;;5015401;28;20243;-74
2022/05/13 02:06:53;;;;;;;2.28;2.10;;;15.00;76.30;;;;;;5013790;28;20246;-73
2022/05/13 02:09:18;;;;;;;2.15;2.05;;;15.00;75.90;;;;;;5007516;28;20181;-73
2022/05/13 02:11:45;;;;;;;1.92;1.83;;;14.90;76.20;;;;;;5012699;28;20242;-74
2022/05/13 02:14:13;;;;;;;1.90;1.75;;;14.90;76.10;;;;;;5014062;28;20213;-73
2022/05/13 02:16:39;;;;;;;1.63;1.52;;;14.90;76.00;;;;;;5009986;28;20784;-73
2022/05/13 02:19:05;;;;;;;1.85;1.83;;;14.90;76.10;;;;;;5008328;28;20196;-73
2022/05/13 02:21:30;;;;;;;2.47;2.38;;;14.80;76.40;;;;;;5008834;28;20181;-73
2022/05/13 02:23:56;;;;;;;2.08;1.98;;;14.80;76.40;;;;;;5010800;28;20192;-73
2022/05/13 02:26:22;;;;;;;2.33;1.65;;;14.80;76.40;;;;;;5008791;28;20199;-73
2022/05/13 02:28:48;;;;;;;2.60;2.40;;;14.80;77.10;;;;;;5014849;28;20857;-74
2022/05/13 02:31:15;;;;;;;5.85;2.17;;;14.80;77.30;;;;;;5013810;28;20189;-74
2022/05/13 02:33:43;;;;;;;2.58;2.38;;;14.70;77.50;;;;;;5014955;28;20208;-73
2022/05/13 02:36:11;;;;;;;1.92;1.83;;;14.70;77.40;;;;;;5014486;28;20839;-74
2022/05/13 02:38:37;;;;;;;2.72;2.50;;;14.70;77.80;;;;;;5042073;28;20185;-73
2022/05/13 02:41:12;;;;;;;2.78;2.58;;;14.70;77.80;;;;;;5015594;28;20211;-73
2022/05/13 02:43:53;;;;;;;2.85;2.70;;;14.70;78.30;;;;;;5013795;28;20188;-73
2022/05/13 02:46:28;;;;;;;2.00;1.90;;;14.70;78.60;;;;;;5010011;28;20180;-74
2022/05/13 02:48:54;;;;;;;2.00;1.92;;;14.60;78.50;;;;;;5052954;28;20207;-73
2022/05/13 02:51:21;;;;;;;2.38;2.28;;;14.60;78.80;;;;;;5013215;28;20192;-73
2022/05/13 02:53:47;;;;;;;3.60;2.22;;;14.60;78.90;;;;;;5021635;28;20224;-73
2022/05/13 02:56:13;;;;;;;2.97;2.67;;;14.50;78.70;;;;;;5017014;28;20287;-73
2022/05/13 02:58:40;;;;;;;3.00;2.40;;;14.50;78.70;;;;;;5048177;28;20185;-73
2022/05/13 03:01:07;;;;;;;2.97;2.13;;;14.40;78.10;;;;;;5013943;28;20177;-73
2022/05/13 03:03:36;;;;;;;2.60;2.33;;;14.30;77.90;;;;;;5020848;28;20219;-72
2022/05/13 03:06:02;;;;;;;2.72;2.55;;;14.30;78.20;;;;;;5011551;28;20188;-73
2022/05/13 03:08:29;;;;;;;3.88;2.53;;;14.30;77.90;;;;;;5013923;28;20180;-72
2022/05/13 03:10:55;;;;;;;3.15;2.40;;;14.30;78.10;;;;;;5032203;28;20205;-73
2022/05/13 03:13:20;;;;;;;2.20;2.10;;;14.30;79.00;;;;;;5016718;28;20307;-73
2022/05/13 03:15:47;;;;;;;2.67;2.45;;;14.30;79.10;;;;;;5019610;28;20749;-73
2022/05/13 03:18:13;;;;;;;8.57;2.08;;;14.30;78.60;;;;;;5015137;28;20196;-74
2022/05/13 03:20:38;;;;;;;3.15;2.42;;;14.20;77.90;;;;;;5015649;28;20462;-72
2022/05/13 03:23:04;;;;;;;2.15;2.13;;;;;;;;;;5019924;28;20199;-73
2022/05/13 03:25:30;;;;;;;3.58;1.98;;;14.20;78.40;;;;;;5019085;28;20180;-72
2022/05/13 03:27:57;;;;;;;1.90;1.90;;;14.20;78.60;;;;;;5016742;28;20177;-72
2022/05/13 03:30:25;;;;;;;1.98;1.98;;;14.20;78.60;;;;;;5011449;28;20189;-73
2022/05/13 03:32:52;;;;;;;4.13;2.25;;;14.20;78.50;;;;;;5018880;28;20217;-73
2022/05/13 03:35:19;;;;;;;2.30;2.17;;;14.20;78.70;;;;;;5010318;28;20195;-74
2022/05/13 03:37:45;;;;;;;2.20;2.08;;;14.20;78.80;;;;;;5016634;28;20627;-74
2022/05/13 03:40:13;;;;;;;4.43;2.42;;;14.20;79.00;;;;;;5014436;28;20238;-74
2022/05/13 03:42:39;;;;;;;2.63;2.42;;;14.20;79.20;;;;;;5016068;28;20185;-74
2022/05/13 03:45:06;;;;;;;2.50;2.40;;;14.20;78.60;;;;;;5009238;28;20185;-74
2022/05/13 03:47:32;;;;;;;2.55;2.45;;;14.10;78.40;;;;;;5017118;28;20185;-74
2022/05/13 03:49:58;;;;;;;2.10;2.10;;;14.10;78.80;;;;;;5015705;28;20828;-74
2022/05/13 03:52:26;;;;;;;5.25;1.90;;;14.10;78.70;;;;;;5016283;28;20215;-74
2022/05/13 03:54:51;;;;;;;1.95;1.85;;;14.20;79.00;;;;;;5012049;28;20188;-74
2022/05/13 03:57:17;;;;;;;2.42;2.28;;;14.20;79.20;;;;;;5007506;28;20215;-74
2022/05/13 03:59:43;;;;;;;3.40;2.47;;;14.20;79.00;;;;;;5012829;28;20192;-73
2022/05/13 04:02:09;;;;;;;3.35;2.20;;;;;;;;;;5014891;28;20275;-73
2022/05/13 04:10:06;;;;;;;3.08;2.40;;;14.30;80.70;;;;;;5009531;28;20266;-73
2022/05/13 04:18:02;;;;;;;3.50;1.92;;;14.30;79.80;;;;;;5009526;28;20251;-72
2022/05/13 04:20:29;;;;;;;2.40;2.30;;;14.30;79.50;;;;;;5013149;28;20176;-73
2022/05/13 04:22:55;;;;;;;2.03;1.92;;;14.30;79.50;;;;;;5012529;28;20180;-72
2022/05/13 04:25:21;;;;;;;2.60;2.38;;;14.40;79.60;;;;;;5012515;28;20231;-74
2022/05/13 04:27:47;;;;;;;3.50;2.40;;;14.40;79.40;;;;;;5009841;28;20189;-73
2022/05/13 04:30:13;;;;;;;4.40;2.55;;;14.50;79.30;;;;;;5011724;28;20232;-74
2022/05/13 04:32:39;;;;;;;2.90;2.25;;;14.50;79.60;;;;;;5009279;28;20631;-74
2022/05/13 04:35:05;;;;;;;2.78;2.47;;;14.50;79.30;;;;;;5005036;28;20184;-75
2022/05/13 04:37:31;;;;;;;2.55;2.45;;;14.50;78.60;;;;;;5009448;28;20184;-74
2022/05/13 04:39:56;;;;;;;3.28;2.47;;;14.60;79.10;;;;;;5017012;28;20184;-74
2022/05/13 04:45:08;;;;;;;2.47;2.38;;;14.60;78.90;;;;;;5015271;28;20188;-73
2022/05/13 04:50:20;;;;;;;1.98;1.88;;;14.70;78.80;;;;;;5010832;28;20831;-74
2022/05/13 04:52:46;;;;;;;2.35;2.17;;;14.80;78.60;;;;;;5010504;28;20222;-74
2022/05/13 04:55:12;;;;;;;5.03;2.50;;;14.80;78.40;;;;;;5013656;28;20259;-74
2022/05/13 04:57:38;;;;;;;2.17;2.08;;;;;;;;;;5012587;28;20267;-74
2022/05/13 05:00:07;;;;;;;2.65;2.55;;;14.90;78.30;;;;;;5013625;28;20652;-74
2022/05/13 05:02:33;;;;;;;2.22;2.13;;;14.90;78.30;;;;;;5010650;28;20275;-74
2022/05/13 05:04:59;;;;;;;3.90;2.40;;;15.00;78.30;;;;;;5011340;28;20271;-72
2022/05/13 05:07:25;;;;;;;2.67;2.58;;;15.10;78.10;;;;;;5013806;28;20184;-73
2022/05/13 05:09:50;;;;;;;2.08;2.08;;;15.10;78.30;;;;;;5005854;28;22289;-72
2022/05/13 05:12:16;;;;;;;2.80;2.55;;;;;;;;;;5006077;28;20215;-73
2022/05/13 05:14:42;;;;;;;2.95;2.85;;;15.20;78.50;;;;;;5009424;28;20184;-73
2022/05/13 05:17:08;;;;;;;4.38;3.00;;;15.30;78.50;;;;;;5011765;28;20188;-73
2022/05/13 05:19:34;;;;;;;2.95;2.70;;;15.30;77.60;;;;;;5007246;28;20195;-78
2022/05/13 05:22:00;;;;;;;2.65;2.55;;;15.40;78.00;;;;;;5013218;28;20177;-74
2022/05/13 05:24:25;;;;;;;2.90;2.80;;;15.50;77.70;;;;;;5011279;28;20188;-76
2022/05/13 05:26:51;;;;;;;2.90;2.80;;;15.50;77.60;;;;;;5001264;28;20259;-73
2022/05/13 05:29:17;;;;;;;3.10;2.70;;;15.60;77.30;;;;;;5009153;28;20184;-73
2022/05/13 05:31:43;;;;;;;4.25;2.92;;;;;;;;;;5016541;28;20195;-73
2022/05/13 05:34:09;;;;;;;3.08;2.88;;;15.70;76.90;;;;;;5005184;28;20220;-74
2022/05/13 05:36:35;;;;;;;2.72;2.05;;;15.70;76.80;;;;;;5041826;28;20185;-74
2022/05/13 05:39:01;;;;;;;2.38;2.17;;;15.80;76.80;;;;;;5028892;28;20189;-73
2022/05/13 05:41:27;;;;;;;2.15;2.03;;;15.80;76.30;;;;;;5010121;28;20183;-76
2022/05/13 05:43:53;;;;;;;2.78;2.60;;;;;;;;;;5012705;28;20216;-73
2022/05/13 05:46:19;;;;;;;3.22;1.92;;;16.00;76.20;;;;;;5013470;28;20643;-72
2022/05/13 05:48:45;;;;;;;2.97;2.53;;;16.10;75.70;;;;;;5009545;28;20287;-72
2022/05/13 05:51:11;;;;;;;2.10;2.00;;;;;;;;;;5009734;28;20188;-73
2022/05/13 05:59:06;;;;;;;3.10;2.90;;;16.30;75.40;;;;;;5016905;28;20191;-73
2022/05/13 06:01:31;;;;;;;2.60;2.50;;;16.40;75.00;;;;;;5008699;28;20584;-73
2022/05/13 06:03:57;;;;;;;2.92;2.28;;;;;;;;;;5015801;28;20194;-74
2022/05/13 06:06:23;;;;;;;3.45;2.67;;;16.60;74.90;;;;;;5020473;28;20220;-72
2022/05/13 06:08:50;;;;;;;3.90;3.70;;;16.60;75.00;;;;;;5012589;28;20949;-74
2022/05/13 06:11:15;;;;;;;3.05;2.70;;;16.60;74.60;;;;;;5019213;28;20180;-74
2022/05/13 06:13:41;;;;;;;7.28;3.30;;;16.70;74.60;;;;;;5012895;28;21191;-74
2022/05/13 06:16:07;;;;;;;4.55;2.83;;;16.80;74.70;;;;;;5007732;28;20181;-74
2022/05/13 06:18:37;;;;;;;3.65;3.38;;;16.90;74.50;;;;;;5011886;28;20208;-73
2022/05/13 06:21:04;;;;;;;3.63;2.95;;;16.90;74.20;;;;;;5009313;28;20196;-72
2022/05/13 06:23:29;;;;;;;3.40;3.20;;;17.00;73.90;;;;;;5012724;28;20177;-73
2022/05/13 06:25:55;;;;;;;6.25;3.65;;;17.10;73.70;;;;;;5013419;28;20210;-73
2022/05/13 06:28:21;;;;;;;3.00;2.72;;;17.20;73.80;;;;;;5016477;28;20262;-73
2022/05/13 06:30:47;;;;;;;2.58;2.47;;;;;;;;;;5013537;28;20191;-73
2022/05/13 06:33:13;;;;;;;2.30;2.20;;;17.30;74.20;;;;;;5017055;28;20209;-73
2022/05/13 06:35:41;;;;;;;4.85;3.47;;;17.50;74.70;;;;;;5010730;28;20185;-73
2022/05/13 06:38:08;;;;;;;5.88;3.42;;;17.50;74.70;;;;;;5016147;28;20296;-73
2022/05/13 06:40:34;;;;;;;3.38;3.05;;;17.60;73.90;;;;;;5030824;28;20279;-74
2022/05/13 06:42:59;;;;;;;4.38;3.22;;;17.70;73.40;;;;;;5013569;28;20283;-74
2022/05/13 06:45:25;;;;;;;3.53;2.60;;;;;;;;;;5010687;28;20724;-74
2022/05/13 06:47:51;;;;;;;2.60;2.40;;;17.80;73.90;;;;;;5011687;28;20799;-73
2022/05/13 06:50:18;;;;;;;2.90;2.70;;;17.90;73.40;;;;;;5014985;28;20216;-73
2022/05/13 06:52:45;;;;;;;7.50;3.25;;;18.00;73.20;;;;;;5006621;28;20215;-73
2022/05/13 06:55:13;;;;;;;2.85;2.65;;;18.10;72.30;;;;;;5010737;28;20211;-73
2022/05/13 06:57:39;;;;;;;2.40;2.30;;;18.10;72.20;;;;;;5010377;28;20191;-73
2022/05/13 07:00:07;;;;;;;4.25;2.80;;;18.30;71.80;;;;;;5006304;28;20589;-73
2022/05/13 07:02:33;;;;;;;2.90;2.80;;;18.30;71.80;;;;;;5012833;28;20235;-73
2022/05/13 07:04:59;;;;;;;3.17;2.97;;;18.40;72.10;;;;;;5015322;28;20211;-73
2022/05/13 07:07:25;;;;;;;3.92;3.20;;;18.50;71.40;;;;;;5015541;28;20309;-73
2022/05/13 07:09:50;;;;;;;3.03;2.53;;;18.60;72.30;;;;;;5013656;28;20272;-73
2022/05/13 07:12:18;;;;;;;4.20;3.80;;;18.70;71.30;;;;;;5010791;28;20173;-73
2022/05/13 07:14:44;;;;;;;5.07;3.92;;;18.70;70.80;;;;;;5043260;28;20462;-73
2022/05/13 07:17:10;;;;;;;3.17;2.92;;;18.80;71.10;;;;;;5016086;28;20176;-72
2022/05/13 07:19:36;;;;;;;2.97;2.67;;;;;;;;;;5013425;28;20193;-72
2022/05/13 07:22:02;;;;;;;4.05;3.20;;;19.00;71.20;;;;;;5012023;28;20644;-71
2022/05/13 07:24:28;;;;;;;3.10;2.97;;;19.00;71.20;;;;;;5009869;28;20193;-72
2022/05/13 07:26:54;;;;;;;3.42;3.22;;;19.10;70.90;;;;;;5011828;28;20297;-73
2022/05/13 07:29:20;;;;;;;3.33;2.97;;;19.20;70.70;;;;;;5013499;28;20188;-73
2022/05/13 07:31:46;;;;;;;6.82;3.30;;;19.30;70.40;;;;;;5018244;28;20279;-73
2022/05/13 07:34:12;;;;;;;3.15;3.05;;;19.30;70.80;;;;;;5015898;28;20375;-73
2022/05/13 07:36:37;;;;;;;4.28;3.60;;;19.40;70.90;;;;;;5016555;28;20264;-72
2022/05/13 07:41:48;;;;;;;3.65;3.45;;;19.60;70.10;;;;;;5014627;28;20532;-72
2022/05/13 07:44:14;;;;;;;10.95;4.88;;;;;;;;;;5019873;28;20181;-73
2022/05/13 07:46:40;;;;;;;6.90;4.70;;;19.80;70.20;;;;;;5016320;28;20191;-72
2022/05/13 07:49:07;;;;;;;3.83;3.38;;;19.90;70.10;;;;;;5012657;28;20189;-73
2022/05/13 07:51:33;;;;;;;4.00;3.70;;;20.00;69.30;;;;;;5015979;28;20319;-73
2022/05/13 07:53:58;;;;;;;3.47;3.25;;;20.00;69.30;;;;;;5018202;28;20303;-73
2022/05/13 07:56:25;;;;;;;3.92;3.63;;;;;;;;;;5014724;28;20214;-73
2022/05/13 07:58:50;;;;;;;4.00;3.70;;;20.30;69.20;;;;;;5011608;28;20180;-73
2022/05/13 08:01:17;;;;;;;4.28;3.38;;;20.30;68.80;;;;;;5011404;28;20177;-73
2022/05/13 08:03:44;;;;;;;10.30;4.00;;;20.40;69.00;;;;;;5016249;28;20802;-73
2022/05/13 08:06:13;;;;;;;3.90;3.53;;;20.50;68.70;;;;;;5010093;28;20272;-73
2022/05/13 08:08:42;;;;;;;4.47;3.85;;;20.60;68.10;;;;;;5011237;28;20187;-73
2022/05/13 08:11:11;;;;;;;4.60;4.13;;;20.70;67.00;;;;;;5015505;28;20180;-73
2022/05/13 08:13:37;;;;;;;3.25;3.15;;;20.80;67.50;;;;;;5012150;28;20205;-73
2022/05/13 08:16:06;;;;;;;4.47;3.70;;;20.80;67.00;;;;;;5011796;28;20192;-73
2022/05/13 08:18:32;;;;;;;3.78;3.47;;;20.90;66.60;;;;;;5012507;28;20219;-72
2022/05/13 08:20:58;;;;;;;3.42;3.22;;;21.00;66.70;;;;;;5013074;28;20192;-73
2022/05/13 08:23:24;;;;;;;3.67;3.38;;;21.10;67.10;;;;;;5035423;28;20785;-74
2022/05/13 08:25:51;;;;;;;4.10;3.67;;;21.20;65.90;;;;;;5006845;28;20192;-73
2022/05/13 08:28:18;;;;;;;4.15;3.75;;;21.20;66.70;;;;;;5004604;28;20189;-74
2022/05/13 08:30:45;;;;;;;5.82;3.47;;;21.30;65.70;;;;;;5010532;28;20230;-74
2022/05/13 08:33:11;;;;;;;4.13;3.83;;;21.40;64.60;;;;;;5008397;28;20209;-73
2022/05/13 08:35:40;;;;;;;4.78;3.80;;;21.40;65.90;;;;;;5008556;28;20182;-73
2022/05/13 08:38:08;;;;;;;4.05;3.70;;;21.60;65.80;;;;;;5015283;28;20242;-73
2022/05/13 08:41:03;;;;;;;3.92;3.63;;;21.70;65.60;;;;;;5009654;28;20572;-73
2022/05/13 08:43:43;;;;;;;4.57;3.92;;;21.70;64.90;;;;;;5011334;28;20181;-72
2022/05/13 08:46:19;;;;;;;4.22;3.78;;;21.90;64.60;;;;;;5040621;28;20192;-72
2022/05/13 08:48:47;;;;;;;3.40;3.20;;;21.90;66.30;;;;;;5005084;28;20275;-72
2022/05/13 08:51:41;;;;;;;2.75;2.65;;;22.00;66.70;;;;;;5010328;28;20208;-72
2022/05/13 08:54:14;;;;;;;4.45;2.63;;;22.10;65.90;;;;;;5006304;28;20950;-72
2022/05/13 08:56:45;;;;;;;4.03;3.58;;;22.30;65.50;;;;;;5010217;28;20191;-73
2022/05/13 08:59:17;;;;;;;4.28;3.95;;;22.30;64.50;;;;;;5010128;28;20272;-72
2022/05/13 09:01:48;;;;;;;4.05;3.85;;;22.50;63.20;;;;;;5008451;28;20184;-72
2022/05/13 09:04:37;;;;;;;3.38;3.17;;;22.60;65.30;;;;;;5009425;28;20245;-73
2022/05/13 09:07:10;;;;;;;4.05;3.75;;;22.80;63.40;;;;;;5010020;28;20188;-73
2022/05/13 09:09:37;;;;;;;3.67;3.45;;;22.90;65.10;;;;;;5010654;28;20241;-73
2022/05/13 09:12:20;;;;;;;3.78;3.58;;;23.00;64.50;;;;;;5006611;28;20271;-73
2022/05/13 09:15:16;;;;;;;4.72;3.58;;;23.20;62.60;;;;;;5005918;28;20220;-73
2022/05/13 09:18:04;;;;;;;3.78;3.47;;;23.30;63.30;;;;;;5012606;28;20227;-73
2022/05/13 09:20:40;;;;;;;4.93;3.03;;;23.40;63.60;;;;;;5007680;28;20219;-73
2022/05/13 09:23:10;;;;;;;3.60;3.35;;;23.50;63.10;;;;;;5004212;28;20655;-72
2022/05/13 09:25:41;;;;;;;3.88;3.58;;;23.70;63.40;;;;;;5007326;28;20185;-73
2022/05/13 09:28:10;;;;;;;4.70;3.42;;;23.70;62.90;;;;;;5039086;28;20590;-73
2022/05/13 09:30:50;;;;;;;4.20;3.88;;;24.00;61.70;;;;;;5009101;28;20187;-73
2022/05/13 09:33:36;;;;;;;4.95;3.30;;;24.20;60.80;;;;;;5005588;28;20220;-73
2022/05/13 09:36:16;;;;;;;7.93;3.35;;;24.30;60.30;;;;;;5012113;28;20177;-73
2022/05/13 09:38:46;;;;;;;3.35;3.25;;;24.70;60.20;;;;;;5013797;28;20322;-72
2022/05/13 09:41:13;;;;;;;3.65;3.28;;;24.70;60.20;;;;;;5016791;28;20247;-73
2022/05/13 09:43:40;;;;;;;4.85;3.05;;;;;;;;;;5011661;28;20694;-72
2022/05/13 09:46:07;;;;;;;3.60;3.38;;;25.10;59.70;;;;;;5012049;28;20235;-72
2022/05/13 09:48:36;;;;;;;3.47;3.13;;;25.20;58.20;;;;;;5019458;28;20408;-73
2022/05/13 09:51:40;;;;;;;5.55;2.80;;;25.30;58.30;;;;;;5013982;28;20195;-73
2022/05/13 09:54:33;;;;;;;2.33;2.33;;;25.60;56.90;;;;;;4981116;28;20224;-73
2022/05/13 09:57:28;;;;;;;3.00;2.90;;;26.00;57.30;;;;;;4980789;28;20230;-73
2022/05/13 09:59:59;;;;;;;3.85;2.72;;;26.00;57.30;;;;;;4964240;28;20563;-73
2022/05/13 10:02:34;;;;;;;3.15;2.95;;;26.40;57.30;;;;;;4965196;28;20194;-73
2022/05/13 10:05:19;;;;;;;3.67;2.70;;;26.90;56.20;;;;;;4964466;28;20582;-73
2022/05/13 10:07:51;;;;;;;3.05;2.83;;;28.10;54.20;;;;;;4966415;28;20193;-73
2022/05/13 10:16:05;;;;;;;2.13;2.03;;;29.70;51.20;;;;;;4965727;28;20213;-73
2022/05/13 10:18:37;;;;;;;2.10;2.00;;;31.10;47.30;;;;;;4967422;28;20589;-73
2022/05/13 10:21:13;;;;;;;2.10;2.00;;;31.20;48.00;;;;;;4966119;28;20194;-74
2022/05/13 10:24:04;;;;;;;1.63;1.52;;;32.20;47.00;;;;;;4966971;28;20193;-74
2022/05/13 10:26:38;;;;;;;2.85;1.77;;;32.20;47.00;;;;;;4965767;28;20194;-72
2022/05/13 10:29:14;;;;;;;1.80;1.80;;;33.00;47.00;;;;;;5011307;28;20664;-73
2022/05/13 10:31:43;;;;;;;2.10;1.95;;;33.70;46.20;;;;;;5013328;28;20185;-74
2022/05/13 10:34:37;;;;;;;2.05;1.95;;;33.70;46.10;;;;;;5015355;28;20207;-73
2022/05/13 10:37:19;;;;;;;4.78;1.92;;;34.00;45.80;;;;;;5014971;28;20184;-74
2022/05/13 10:39:53;;;;;;;1.92;1.83;;;33.90;45.00;;;;;;5015030;28;20645;-74
2022/05/13 10:42:28;;;;;;;1.95;1.85;;;34.00;45.20;;;;;;5020866;28;20270;-74
2022/05/13 10:45:19;;;;;;;1.88;1.88;;;34.10;45.30;;;;;;5013189;28;20283;-74
2022/05/13 10:47:53;;;;;;;3.88;2.13;;;34.10;45.30;;;;;;5050201;28;20270;-74
2022/05/13 10:50:23;;;;;;;1.85;1.85;;;34.20;45.80;;;;;;5015481;28;20903;-74
2022/05/13 10:52:57;;;;;;;1.65;1.65;;;34.50;47.40;;;;;;5015906;28;20222;-74
2022/05/13 10:55:49;;;;;;;1.85;1.85;;;34.90;45.90;;;;;;5014190;28;20724;-74
2022/05/13 10:58:43;;;;;;;2.00;1.90;;;35.30;45.70;;;;;;5016579;28;20556;-74
2022/05/13 11:01:09;;;;;;;1.77;1.67;;;;;;;;;;5015768;28;20179;-73
2022/05/13 11:03:43;;;;;;;1.83;1.83;;;36.10;43.70;;;;;;5022400;28;20180;-74
2022/05/13 11:06:21;;;;;;;2.22;1.98;;;36.60;43.70;;;;;;5015906;28;20183;-74
2022/05/13 11:09:10;;;;;;;1.92;1.92;;;37.10;41.90;;;;;;5015748;28;20195;-74
2022/05/13 11:11:46;;;;;;;2.13;1.92;;;37.50;41.80;;;;;;5012805;28;20271;-74
2022/05/13 11:14:21;;;;;;;1.70;1.58;;;37.80;42.20;;;;;;5017802;28;20350;-73
2022/05/13 11:16:52;;;;;;;2.40;2.30;;;38.10;43.10;;;;;;5014921;28;20187;-73
2022/05/13 11:19:40;;;;;;;1.80;1.80;;;38.50;40.90;;;;;;5019346;28;20187;-73
2022/05/13 11:22:38;;;;;;;2.65;1.85;;;38.50;41.10;;;;;;5012696;28;20233;-74
2022/05/13 11:28:33;;;;;;;1.90;1.90;;;38.50;41.60;;;;;;4963443;28;20844;-73
2022/05/13 11:31:16;;;;;;;1.70;1.70;;;38.50;41.10;;;;;;4963048;28;20730;-74
2022/05/13 11:34:24;;;;;;;1.90;1.90;;;38.50;41.00;;;;;;4961532;28;20785;-73
2022/05/13 11:37:05;;;;;;;2.30;2.20;;;38.60;41.20;;;;;;4936104;29;20198;-74
2022/05/13 11:40:00;;;;;;;1.55;1.55;;;39.20;41.30;;;;;;4935514;29;20297;-73
2022/05/13 11:42:36;;;;;;;1.95;1.85;;;39.20;40.20;;;;;;4930399;29;20191;-73
2022/05/13 11:45:20;;;;;;;2.38;2.17;;;39.60;40.00;;;;;;4928132;29;20416;-74
2022/05/13 11:47:48;;;;;;;3.15;1.67;;;;;;;;;;4932269;29;20203;-73
2022/05/13 11:50:16;;;;;;;1.85;1.85;;;40.00;39.40;;;;;;4936070;29;20206;-73
2022/05/13 11:52:46;;;;;;;2.22;2.10;;;40.40;38.60;;;;;;4929206;29;20198;-73
2022/05/13 11:55:22;;;;;;;1.48;1.48;;;40.40;38.80;;;;;;4926991;29;20199;-74
2022/05/13 11:57:57;;;;;;;1.48;1.48;;;40.70;38.90;;;;;;4926193;29;20596;-74
2022/05/13 12:00:35;;;;;;;2.03;1.92;;;41.10;39.00;;;;;;4930076;28;20198;-73
2022/05/13 12:03:21;;;;;;;4.70;1.58;;;41.40;38.60;;;;;;4973187;28;20612;-74
2022/05/13 12:05:46;;;;;;;5.10;1.80;;;41.80;38.50;;;;;;4973434;28;20221;-74
2022/05/13 12:08:15;;;;;;;1.80;1.50;;;42.10;39.40;;;;;;4974911;28;20180;-74
2022/05/13 12:11:00;;;;;;;1.55;1.55;;;42.20;37.30;;;;;;4974473;28;20177;-74
2022/05/13 12:13:28;;;;;;;2.83;1.40;;;42.30;38.20;;;;;;4994562;28;20286;-74
2022/05/13 12:16:25;;;;;;;1.20;1.20;;;42.30;38.00;;;;;;5017488;28;20514;-72
2022/05/13 12:18:54;;;;;;;1.58;1.27;;;42.20;37.80;;;;;;5013903;28;20187;-73
2022/05/13 12:21:42;;;;;;;1.20;1.20;;;42.30;36.70;;;;;;5010875;28;20184;-74
2022/05/13 12:24:11;;;;;;;1.48;1.40;;;42.40;36.50;;;;;;5006176;28;20580;-75
2022/05/13 12:27:03;;;;;;;2.05;1.50;;;42.60;36.30;;;;;;5010014;28;20747;-74
2022/05/13 12:29:34;;;;;;;3.65;1.42;;;43.10;36.50;;;;;;4950952;28;20288;-73
2022/05/13 12:32:00;;;;;;;1.67;1.65;;;43.10;37.20;;;;;;4958395;28;20244;-74
2022/05/13 12:37:46;;;;;;;1.45;1.40;;;43.20;36.30;;;;;;4961771;28;20317;-72
2022/05/13 12:40:24;;;;;;;2.13;1.67;;;43.30;36.90;;;;;;4960013;28;20221;-75
2022/05/13 12:42:52;;;;;;;1.50;1.50;;;43.30;37.90;;;;;;4962079;28;20220;-75
2022/05/13 12:45:22;;;;;;;1.52;1.52;;;43.20;35.40;;;;;;4959163;28;20781;-75
2022/05/13 12:47:57;;;;;;;1.73;1.40;;;43.10;36.90;;;;;;4961196;28;20625;-75
2022/05/13 12:50:38;;;;;;;1.60;1.50;;;43.00;37.10;;;;;;4960919;28;20181;-74
2022/05/13 12:53:30;;;;;;;1.70;1.65;;;43.00;36.90;;;;;;4962111;28;20259;-74
2022/05/13 12:55:56;;;;;;;1.33;1.33;;;43.00;36.50;;;;;;4958592;28;20233;-73
2022/05/13 12:58:24;;;;;;;1.85;1.75;;;43.10;38.00;;;;;;4959347;28;20181;-74
2022/05/13 13:00:52;;;;;;;1.45;1.45;;;43.20;37.10;;;;;;4960322;28;20178;-74
2022/05/13 13:03:20;;;;;;;1.50;1.50;;;42.80;35.50;;;;;;4958519;28;20201;-74
2022/05/13 13:06:15;;;;;;;1.55;1.45;;;42.80;35.60;;;;;;4967376;28;20187;-74
2022/05/13 13:08:43;;;;;;;1.42;1.42;;;43.10;35.10;;;;;;4985413;28;20280;-74
2022/05/13 13:11:33;;;;;;;1.17;1.17;;;43.20;34.50;;;;;;4987591;28;20185;-74
2022/05/13 13:14:36;;;;;;;1.38;1.38;;;43.10;34.70;;;;;;4987989;28;20627;-74
2022/05/13 13:17:31;;;;;;;1.55;1.40;;;42.80;35.80;;;;;;4989284;28;20259;-77
2022/05/13 13:19:59;;;;;;;1.50;1.17;;;42.90;37.90;;;;;;4931040;29;21041;-76
2022/05/13 13:22:28;;;;;;;3.92;1.45;;;42.80;36.60;;;;;;4931135;29;20205;-77
2022/05/13 13:24:53;;;;;;;1.98;1.50;;;42.90;34.90;;;;;;4927989;29;20355;-77
2022/05/13 13:27:24;;;;;;;1.75;1.65;;;42.80;36.50;;;;;;4929301;29;20305;-81
2022/05/13 13:29:50;;;;;;;1.10;1.10;;;42.80;36.40;;;;;;4935218;29;20189;-77
2022/05/13 13:32:23;;;;;;;1.48;1.33;;;42.90;35.70;;;;;;4931370;29;20190;-76
2022/05/13 13:34:57;;;;;;;1.33;1.20;;;43.00;34.50;;;;;;4934069;29;20679;-76
2022/05/13 13:37:26;;;;;;;1.20;1.20;;;43.20;34.20;;;;;;4927836;29;20281;-77
2022/05/13 13:39:52;;;;;;;1.17;1.17;;;43.30;33.30;;;;;;4930663;29;20194;-77
2022/05/13 13:42:20;;;;;;;1.40;1.30;;;43.10;33.60;;;;;;4933774;29;20240;-75
2022/05/13 13:45:02;;;;;;;1.65;1.00;;;43.10;34.60;;;;;;4935700;28;21081;-76
2022/05/13 13:47:41;;;;;;;3.42;1.58;;;42.80;36.10;;;;;;4949834;28;20585;-76
2022/05/13 13:50:11;;;;;;;1.40;1.30;;;42.20;34.70;;;;;;4966685;28;20193;-75